createdAt,value
2024-03-22T00:00:57.467Z,99.99
2024-03-22T00:01:57.459Z,99.99
2024-03-22T00:02:57.441Z,99.99
2024-03-22T00:03:57.428Z,99.99
2024-03-22T00:04:57.431Z,99.99
2024-03-22T00:05:57.427Z,99.99
2024-03-22T00:06:57.389Z,99.99
2024-03-22T00:07:57.375Z,99.99
2024-03-22T00:08:57.360Z,99.99
2024-03-22T00:09:57.349Z,99.99
2024-03-22T00:10:57.346Z,99.99
2024-03-22T00:11:57.323Z,99.99
2024-03-22T00:12:57.310Z,99.99
2024-03-22T00:13:57.296Z,99.99
2024-03-22T00:14:57.294Z,99.99
2024-03-22T00:15:57.272Z,99.99
2024-03-22T00:16:57.269Z,99.99
2024-03-22T00:17:57.591Z,99.99
2024-03-22T00:18:57.225Z,99.99
2024-03-22T00:19:57.217Z,99.99
2024-03-22T00:20:57.200Z,99.99
2024-03-22T00:21:57.203Z,99.99
2024-03-22T00:22:57.474Z,99.99
2024-03-22T00:23:57.159Z,99.99
2024-03-22T00:24:57.146Z,99.99
2024-03-22T00:25:57.150Z,99.99
2024-03-22T00:26:57.118Z,99.99
2024-03-22T00:27:57.106Z,99.99
2024-03-22T00:28:57.094Z,99.99
2024-03-22T00:29:57.079Z,99.99
2024-03-22T00:30:57.067Z,99.99
2024-03-22T00:31:57.052Z,99.99
2024-03-22T00:32:57.052Z,99.99
2024-03-22T00:33:57.026Z,99.99
2024-03-22T00:34:57.015Z,99.99
2024-03-22T00:35:56.996Z,99.99
2024-03-22T00:36:56.984Z,99.99
2024-03-22T00:37:56.988Z,99.99
2024-03-22T00:38:56.958Z,99.99
2024-03-22T00:39:56.943Z,99.99
2024-03-22T00:40:56.929Z,99.99
2024-03-22T00:41:56.916Z,99.99
2024-03-22T00:42:56.902Z,99.99
2024-03-22T00:43:56.889Z,99.99
2024-03-22T00:44:56.875Z,99.99
2024-03-22T00:45:56.868Z,99.99
2024-03-22T00:46:56.872Z,99.99
2024-03-22T00:47:56.836Z,99.99
2024-03-22T00:48:56.823Z,99.99
2024-03-22T00:49:56.826Z,99.99
2024-03-22T00:50:56.794Z,99.99
2024-03-22T00:51:56.787Z,99.99
2024-03-22T00:52:57.018Z,99.99
2024-03-22T00:53:56.777Z,99.99
2024-03-22T00:54:56.746Z,99.99
2024-03-22T00:55:56.734Z,99.99
2024-03-22T00:56:56.722Z,99.99
2024-03-22T00:57:56.701Z,99.99
2024-03-22T00:58:56.687Z,99.99
2024-03-22T00:59:56.678Z,99.99
2024-03-22T01:00:56.659Z,99.99
2024-03-22T01:01:56.647Z,99.99
2024-03-22T01:02:56.631Z,99.99
2024-03-22T01:03:56.624Z,99.99
2024-03-22T01:04:56.609Z,99.99
2024-03-22T01:05:56.599Z,99.99
2024-03-22T01:06:56.580Z,99.99
2024-03-22T01:07:56.578Z,99.99
2024-03-22T01:08:56.562Z,99.99
2024-03-22T01:09:56.585Z,99.99
2024-03-22T01:10:56.540Z,99.99
2024-03-22T01:11:56.513Z,99.99
2024-03-22T01:12:56.495Z,99.99
2024-03-22T01:13:56.486Z,99.99
2024-03-22T01:14:56.880Z,99.99
2024-03-22T01:15:56.465Z,99.99
2024-03-22T01:16:56.448Z,99.99
2024-03-22T01:17:56.432Z,99.99
2024-03-22T01:18:56.420Z,99.99
2024-03-22T01:19:56.404Z,99.99
2024-03-22T01:20:56.389Z,99.99
2024-03-22T01:21:56.397Z,99.99
2024-03-22T01:22:56.366Z,99.99
2024-03-22T01:23:56.353Z,99.99
2024-03-22T01:24:56.740Z,99.99
2024-03-22T01:25:56.347Z,99.99
2024-03-22T01:26:56.310Z,99.99
2024-03-22T01:27:56.332Z,99.99
2024-03-22T01:28:57.854Z,99.99
2024-03-22T01:29:56.279Z,99.99
2024-03-22T01:30:56.257Z,99.99
2024-03-22T01:31:56.242Z,99.99
2024-03-22T01:32:56.230Z,99.99
2024-03-22T01:33:56.568Z,99.99
2024-03-22T01:34:56.210Z,99.99
2024-03-22T01:35:56.188Z,99.99
2024-03-22T01:36:56.186Z,99.99
2024-03-22T01:37:56.162Z,99.99
2024-03-22T01:38:56.151Z,99.99
2024-03-22T01:39:56.133Z,99.99
2024-03-22T01:40:56.121Z,99.99
2024-03-22T01:41:56.139Z,99.99
2024-03-22T01:42:56.098Z,99.99
2024-03-22T01:43:56.082Z,99.99
2024-03-22T01:44:56.080Z,99.99
2024-03-22T01:45:56.056Z,99.99
2024-03-22T01:46:56.047Z,99.99
2024-03-22T01:47:56.024Z,99.99
2024-03-22T01:48:56.017Z,99.99
2024-03-22T01:49:56.003Z,99.99
2024-03-22T01:50:55.987Z,99.99
2024-03-22T01:51:55.975Z,99.99
2024-03-22T01:52:55.965Z,99.99
2024-03-22T01:53:55.948Z,99.99
2024-03-22T01:54:55.934Z,99.99
2024-03-22T01:55:56.375Z,99.99
2024-03-22T01:56:55.911Z,99.99
2024-03-22T01:57:55.906Z,99.99
2024-03-22T01:58:55.879Z,99.99
2024-03-22T01:59:55.872Z,99.99
2024-03-22T02:00:55.854Z,99.99
2024-03-22T02:01:55.841Z,99.99
2024-03-22T02:02:55.825Z,99.99
2024-03-22T02:03:55.810Z,99.99
2024-03-22T02:04:55.800Z,99.99
2024-03-22T02:05:55.791Z,99.99
2024-03-22T02:06:55.770Z,99.99
2024-03-22T02:07:55.760Z,99.99
2024-03-22T02:08:55.746Z,99.99
2024-03-22T02:09:55.731Z,99.99
2024-03-22T02:10:55.717Z,99.99
2024-03-22T02:11:55.705Z,99.99
2024-03-22T02:12:55.691Z,99.99
2024-03-22T02:13:55.689Z,99.99
2024-03-22T02:14:55.664Z,99.99
2024-03-22T02:15:55.651Z,99.99
2024-03-22T02:16:55.646Z,99.99
2024-03-22T02:17:55.659Z,99.99
2024-03-22T02:18:55.611Z,99.99
2024-03-22T02:19:55.602Z,99.99
2024-03-22T02:20:55.586Z,99.99
2024-03-22T02:21:55.575Z,99.99
2024-03-22T02:22:55.558Z,99.99
2024-03-22T02:23:55.543Z,99.99
2024-03-22T02:24:55.531Z,99.99
2024-03-22T02:25:55.528Z,99.99
2024-03-22T02:26:55.505Z,99.99
2024-03-22T02:27:55.542Z,99.99
2024-03-22T02:28:55.487Z,99.99
2024-03-22T02:29:55.482Z,99.99
2024-03-22T02:30:55.454Z,99.99
2024-03-22T02:31:55.434Z,99.99
2024-03-22T02:32:55.423Z,99.99
2024-03-22T02:33:55.420Z,99.99
2024-03-22T02:35:00.662Z,99.99
2024-03-22T02:35:56.403Z,99.99
2024-03-22T02:36:55.377Z,99.99
2024-03-22T02:37:55.362Z,99.99
2024-03-22T02:38:55.496Z,99.99
2024-03-22T02:39:55.330Z,99.99
2024-03-22T02:40:55.321Z,99.99
2024-03-22T02:41:55.305Z,99.99
2024-03-22T02:42:55.290Z,99.99
2024-03-22T02:43:55.278Z,99.99
2024-03-22T02:44:55.263Z,99.99
2024-03-22T02:45:55.266Z,99.99
2024-03-22T02:46:55.239Z,99.99
2024-03-22T02:47:55.266Z,99.99
2024-03-22T02:48:55.215Z,99.99
2024-03-22T02:49:55.215Z,99.99
2024-03-22T02:50:55.179Z,99.99
2024-03-22T02:51:55.168Z,99.99
2024-03-22T02:52:55.158Z,99.99
2024-03-22T02:53:55.152Z,99.99
2024-03-22T02:54:55.131Z,99.99
2024-03-22T02:55:55.119Z,99.99
2024-03-22T02:56:55.101Z,99.99
2024-03-22T02:57:55.090Z,99.99
2024-03-22T02:58:55.384Z,99.99
2024-03-22T02:59:55.059Z,99.99
2024-03-22T03:00:55.048Z,99.99
2024-03-22T03:01:55.052Z,99.99
2024-03-22T03:02:55.031Z,99.99
2024-03-22T03:03:55.017Z,99.99
2024-03-22T03:04:54.996Z,99.99
2024-03-22T03:05:54.983Z,99.99
2024-03-22T03:06:54.978Z,99.99
2024-03-22T03:07:54.951Z,99.99
2024-03-22T03:08:54.938Z,99.99
2024-03-22T03:09:54.927Z,99.99
2024-03-22T03:10:54.921Z,99.99
2024-03-22T03:11:54.902Z,99.99
2024-03-22T03:12:54.895Z,99.99
2024-03-22T03:13:54.875Z,99.99
2024-03-22T03:14:54.866Z,99.99
2024-03-22T03:15:54.851Z,99.99
2024-03-22T03:16:54.837Z,99.99
2024-03-22T03:17:54.844Z,99.99
2024-03-22T03:18:54.810Z,99.99
2024-03-22T03:19:54.790Z,99.99
2024-03-22T03:20:54.780Z,99.99
2024-03-22T03:21:55.119Z,99.99
2024-03-22T03:22:54.754Z,99.99
2024-03-22T03:23:54.739Z,99.99
2024-03-22T03:24:54.727Z,99.99
2024-03-22T03:25:54.862Z,99.99
2024-03-22T03:26:54.703Z,99.99
2024-03-22T03:27:54.686Z,99.99
2024-03-22T03:28:54.676Z,99.99
2024-03-22T03:29:54.658Z,99.99
2024-03-22T03:30:54.655Z,99.99
2024-03-22T03:31:54.632Z,99.99
2024-03-22T03:32:54.625Z,99.99
2024-03-22T03:33:54.624Z,99.99
2024-03-22T03:34:54.593Z,99.99
2024-03-22T03:35:54.580Z,99.99
2024-03-22T03:36:54.966Z,99.99
2024-03-22T03:37:54.555Z,99.99
2024-03-22T03:38:54.541Z,99.99
2024-03-22T03:39:54.531Z,99.99
2024-03-22T03:40:54.512Z,99.99
2024-03-22T03:41:54.494Z,99.99
2024-03-22T03:42:54.491Z,99.99
2024-03-22T03:43:54.472Z,99.99
2024-03-22T03:44:54.460Z,99.99
2024-03-22T03:45:54.450Z,99.99
2024-03-22T03:46:54.435Z,99.99
2024-03-22T03:47:54.419Z,99.99
2024-03-22T03:48:54.408Z,99.99
2024-03-22T03:49:54.402Z,99.99
2024-03-22T03:50:54.382Z,99.99
2024-03-22T03:51:54.367Z,99.99
2024-03-22T03:52:54.355Z,99.99
2024-03-22T03:53:54.342Z,99.99
2024-03-22T03:54:54.329Z,99.99
2024-03-22T03:55:54.308Z,99.99
2024-03-22T03:56:54.312Z,99.99
2024-03-22T03:57:54.288Z,99.99
2024-03-22T03:58:54.288Z,99.99
2024-03-22T03:59:54.260Z,99.99
2024-03-22T04:00:54.247Z,99.99
2024-03-22T04:01:54.241Z,99.99
2024-03-22T04:02:54.229Z,99.99
2024-03-22T04:03:54.207Z,99.99
2024-03-22T04:04:56.365Z,99.99
2024-03-22T04:05:54.194Z,99.99
2024-03-22T04:06:54.168Z,99.99
2024-03-22T04:07:54.154Z,99.99
2024-03-22T04:08:54.149Z,99.99
2024-03-22T04:09:54.126Z,99.99
2024-03-22T04:10:54.116Z,99.99
2024-03-22T04:11:54.101Z,99.99
2024-03-22T04:12:54.099Z,99.99
2024-03-22T04:13:54.076Z,99.99
2024-03-22T04:14:54.082Z,99.99
2024-03-22T04:15:54.049Z,99.99
2024-03-22T04:16:54.037Z,99.99
2024-03-22T04:17:54.022Z,99.99
2024-03-22T04:18:54.214Z,99.99
2024-03-22T04:19:54.044Z,99.99
2024-03-22T04:20:53.984Z,99.99
2024-03-22T04:21:53.981Z,99.99
2024-03-22T04:22:53.959Z,99.99
2024-03-22T04:23:53.949Z,99.99
2024-03-22T04:24:53.930Z,99.99
2024-03-22T04:25:53.921Z,99.99
2024-03-22T04:26:53.914Z,99.99
2024-03-22T04:27:53.888Z,99.99
2024-03-22T04:28:53.877Z,99.99
2024-03-22T04:29:53.862Z,99.99
2024-03-22T04:30:53.848Z,99.99
2024-03-22T04:31:53.837Z,99.99
2024-03-22T04:32:54.122Z,99.99
2024-03-22T04:33:53.808Z,99.99
2024-03-22T04:34:53.808Z,99.99
2024-03-22T04:35:53.783Z,99.99
2024-03-22T04:36:53.773Z,99.99
2024-03-22T04:37:53.758Z,99.99
2024-03-22T04:38:53.742Z,99.99
2024-03-22T04:39:53.733Z,99.99
2024-03-22T04:40:53.717Z,99.99
2024-03-22T04:41:53.701Z,99.99
2024-03-22T04:42:53.691Z,99.99
2024-03-22T04:43:53.675Z,99.99
2024-03-22T04:44:53.664Z,99.99
2024-03-22T04:45:53.652Z,99.99
2024-03-22T04:46:53.634Z,99.99
2024-03-22T04:47:53.622Z,99.99
2024-03-22T04:48:53.610Z,99.99
2024-03-22T04:49:53.596Z,99.99
2024-03-22T04:50:53.599Z,99.99
2024-03-22T04:51:53.570Z,99.99
2024-03-22T04:52:53.560Z,99.99
2024-03-22T04:53:53.543Z,99.99
2024-03-22T04:54:53.533Z,99.99
2024-03-22T04:55:53.515Z,99.99
2024-03-22T04:56:53.505Z,99.99
2024-03-22T04:57:53.498Z,99.99
2024-03-22T04:58:53.477Z,99.99
2024-03-22T04:59:53.459Z,99.99
2024-03-22T05:00:53.448Z,99.99
2024-03-22T05:01:53.436Z,99.99
2024-03-22T05:02:53.422Z,99.99
2024-03-22T05:03:53.656Z,99.99
2024-03-22T05:04:53.397Z,99.99
2024-03-22T05:05:53.381Z,99.99
2024-03-22T05:06:53.407Z,99.99
2024-03-22T05:07:53.355Z,99.99
2024-03-22T05:08:53.342Z,99.99
2024-03-22T05:09:53.330Z,99.99
2024-03-22T05:10:53.369Z,99.99
2024-03-22T05:11:53.652Z,99.99
2024-03-22T05:12:53.289Z,99.99
2024-03-22T05:13:53.273Z,99.99
2024-03-22T05:14:53.260Z,99.99
2024-03-22T05:15:53.252Z,99.99
2024-03-22T05:16:53.233Z,99.99
2024-03-22T05:17:53.221Z,99.99
2024-03-22T05:18:53.208Z,99.99
2024-03-22T05:19:53.200Z,99.99
2024-03-22T05:20:53.188Z,99.99
2024-03-22T05:21:53.167Z,99.99
2024-03-22T05:22:53.164Z,99.99
2024-03-22T05:23:53.140Z,99.99
2024-03-22T05:24:53.131Z,99.99
2024-03-22T05:25:53.121Z,99.99
2024-03-22T05:26:53.125Z,99.99
2024-03-22T05:27:53.091Z,99.99
2024-03-22T05:28:53.077Z,99.99
2024-03-22T05:29:53.263Z,99.99
2024-03-22T05:30:53.048Z,99.99
2024-03-22T05:31:53.032Z,99.99
2024-03-22T05:32:53.026Z,99.99
2024-03-22T05:33:53.007Z,99.99
2024-03-22T05:34:52.994Z,99.99
2024-03-22T05:35:52.981Z,99.99
2024-03-22T05:36:52.975Z,99.99
2024-03-22T05:37:53.357Z,99.99
2024-03-22T05:38:52.962Z,99.99
2024-03-22T05:39:52.929Z,99.99
2024-03-22T05:40:52.914Z,99.99
2024-03-22T05:41:52.902Z,99.99
2024-03-22T05:42:52.889Z,99.99
2024-03-22T05:43:52.878Z,99.99
2024-03-22T05:44:52.866Z,99.99
2024-03-22T05:45:52.848Z,99.99
2024-03-22T05:46:52.837Z,99.99
2024-03-22T05:47:52.819Z,99.99
2024-03-22T05:48:53.211Z,99.99
2024-03-22T05:49:52.794Z,99.99
2024-03-22T05:50:52.784Z,99.99
2024-03-22T05:51:52.770Z,99.99
2024-03-22T05:52:52.752Z,99.99
2024-03-22T05:53:52.749Z,99.99
2024-03-22T05:54:52.747Z,99.99
2024-03-22T05:55:52.716Z,99.99
2024-03-22T05:56:52.716Z,99.99
2024-03-22T05:57:52.699Z,99.99
2024-03-22T05:58:52.682Z,99.99
2024-03-22T05:59:52.665Z,99.99
2024-03-22T06:00:52.796Z,99.99
2024-03-22T06:01:52.933Z,99.99
2024-03-22T06:02:52.617Z,99.99
2024-03-22T06:03:52.614Z,99.99
2024-03-22T06:04:52.743Z,99.99
2024-03-22T06:05:52.587Z,99.99
2024-03-22T06:06:52.565Z,99.99
2024-03-22T06:07:52.557Z,99.99
2024-03-22T06:08:52.547Z,99.99
2024-03-22T06:09:52.535Z,99.99
2024-03-22T06:10:52.532Z,99.99
2024-03-22T06:11:52.517Z,99.99
2024-03-22T06:12:52.493Z,99.99
2024-03-22T06:13:52.475Z,99.99
2024-03-22T06:14:52.463Z,99.99
2024-03-22T06:15:52.565Z,99.99
2024-03-22T06:16:52.434Z,99.99
2024-03-22T06:17:52.429Z,99.99
2024-03-22T06:18:52.407Z,99.99
2024-03-22T06:19:52.395Z,99.99
2024-03-22T06:20:52.380Z,99.99
2024-03-22T06:21:52.368Z,99.99
2024-03-22T06:22:52.354Z,99.99
2024-03-22T06:23:52.341Z,99.38
2024-03-22T06:24:52.326Z,98.32
2024-03-22T06:25:52.325Z,95.61
2024-03-22T06:26:52.368Z,93.62
2024-03-22T06:27:52.292Z,92.65
2024-03-22T06:28:52.274Z,91.58
2024-03-22T06:29:52.261Z,88.06
2024-03-22T06:30:52.254Z,87.71
2024-03-22T06:31:52.337Z,86.85
2024-03-22T06:32:52.220Z,84.88
2024-03-22T06:33:52.211Z,83.14
2024-03-22T06:34:52.193Z,82.93
2024-03-22T06:35:52.180Z,81.98
2024-03-22T06:36:52.177Z,81.53
2024-03-22T06:37:52.155Z,79.96
2024-03-22T06:38:52.147Z,79.21
2024-03-22T06:39:52.130Z,78.56
2024-03-22T06:40:52.112Z,76.59
2024-03-22T06:41:52.100Z,76.39
2024-03-22T06:42:52.105Z,75.95
2024-03-22T06:43:52.075Z,75.50
2024-03-22T06:44:52.059Z,74.99
2024-03-22T06:45:52.055Z,74.55
2024-03-22T06:46:52.031Z,75.19
2024-03-22T06:47:52.038Z,73.83
2024-03-22T06:48:52.005Z,72.08
2024-03-22T06:49:51.993Z,71.09
2024-03-22T06:50:51.982Z,71.23
2024-03-22T06:51:51.968Z,71.77
2024-03-22T06:52:51.951Z,72.52
2024-03-22T06:53:53.402Z,73.67
2024-03-22T06:54:51.919Z,74.41
2024-03-22T06:55:51.911Z,75.13
2024-03-22T06:56:51.904Z,76.18
2024-03-22T06:57:51.891Z,76.39
2024-03-22T06:58:51.886Z,76.42
2024-03-22T06:59:51.858Z,76.93
2024-03-22T07:00:51.842Z,77.44
2024-03-22T07:01:51.834Z,77.68
2024-03-22T07:02:51.824Z,77.37
2024-03-22T07:03:51.825Z,78.19
2024-03-22T07:04:51.786Z,79.00
2024-03-22T07:05:51.778Z,79.00
2024-03-22T07:06:51.773Z,79.27
2024-03-22T07:07:51.751Z,79.17
2024-03-22T07:08:51.747Z,78.56
2024-03-22T07:09:51.725Z,78.36
2024-03-22T07:10:51.709Z,77.95
2024-03-22T07:11:51.705Z,78.46
2024-03-22T07:12:51.682Z,79.38
2024-03-22T07:13:51.668Z,80.46
2024-03-22T07:14:51.725Z,79.00
2024-03-22T07:15:51.641Z,77.47
2024-03-22T07:16:51.728Z,77.37
2024-03-22T07:17:51.672Z,77.67
2024-03-22T07:18:51.904Z,78.19
2024-03-22T07:19:51.592Z,78.45
2024-03-22T07:20:51.593Z,78.11
2024-03-22T07:21:51.582Z,76.99
2024-03-22T07:22:51.571Z,77.09
2024-03-22T07:23:51.546Z,76.28
2024-03-22T07:24:51.522Z,76.65
2024-03-22T07:25:51.521Z,76.34
2024-03-22T07:26:51.523Z,75.63
2024-03-22T07:27:51.482Z,74.92
2024-03-22T07:28:51.475Z,75.12
2024-03-22T07:29:51.474Z,76.10
2024-03-22T07:30:51.521Z,76.61
2024-03-22T07:31:51.434Z,73.90
2024-03-22T07:32:51.471Z,70.79
2024-03-22T07:33:51.406Z,69.31
2024-03-22T07:34:51.399Z,69.24
2024-03-22T07:35:51.419Z,68.10
2024-03-22T07:36:51.367Z,66.22
2024-03-22T07:37:51.347Z,66.08
2024-03-22T07:38:51.354Z,65.75
2024-03-22T07:39:51.322Z,64.11
2024-03-22T07:40:51.324Z,62.94
2024-03-22T07:41:51.315Z,61.93
2024-03-22T07:42:51.282Z,62.51
2024-03-22T07:43:51.285Z,61.90
2024-03-22T07:44:51.253Z,61.90
2024-03-22T07:45:51.245Z,60.89
2024-03-22T07:46:51.305Z,60.97
2024-03-22T07:47:51.244Z,59.69
2024-03-22T07:48:51.200Z,61.50
2024-03-22T07:49:51.188Z,61.87
2024-03-22T07:50:51.178Z,60.27
2024-03-22T07:51:51.169Z,60.89
2024-03-22T07:52:51.146Z,61.00
2024-03-22T07:53:51.213Z,60.77
2024-03-22T07:54:51.149Z,59.94
2024-03-22T07:55:51.110Z,58.95
2024-03-22T07:56:51.108Z,60.27
2024-03-22T07:57:51.110Z,60.69
2024-03-22T07:58:51.150Z,60.85
2024-03-22T07:59:51.210Z,61.96
2024-03-22T08:00:51.046Z,62.29
2024-03-22T08:01:51.333Z,62.45
2024-03-22T08:02:51.054Z,64.16
2024-03-22T08:03:50.998Z,66.07
2024-03-22T08:04:50.987Z,67.93
2024-03-22T08:05:51.029Z,68.90
2024-03-22T08:06:50.960Z,69.95
2024-03-22T08:07:50.950Z,70.35
2024-03-22T08:08:50.953Z,70.69
2024-03-22T08:09:50.928Z,72.21
2024-03-22T08:10:50.920Z,71.91
2024-03-22T08:11:50.930Z,72.52
2024-03-22T08:12:50.882Z,72.48
2024-03-22T08:13:50.870Z,71.97
2024-03-22T08:14:50.876Z,71.13
2024-03-22T08:15:50.841Z,70.79
2024-03-22T08:16:50.908Z,70.79
2024-03-22T08:17:50.824Z,69.88
2024-03-22T08:18:50.818Z,70.32
2024-03-22T08:19:50.789Z,71.67
2024-03-22T08:20:50.805Z,72.11
2024-03-22T08:21:50.784Z,72.78
2024-03-22T08:22:50.756Z,71.67
2024-03-22T08:23:50.872Z,69.82
2024-03-22T08:24:50.732Z,67.87
2024-03-22T08:25:50.757Z,64.22
2024-03-22T08:26:50.744Z,61.74
2024-03-22T08:27:59.977Z,60.78
2024-03-22T08:28:51.758Z,59.29
2024-03-22T08:29:50.665Z,57.08
2024-03-22T08:30:52.096Z,57.89
2024-03-22T08:31:50.634Z,58.03
2024-03-22T08:32:50.621Z,58.11
2024-03-22T08:33:50.609Z,55.74
2024-03-22T08:34:50.658Z,56.39
2024-03-22T08:35:50.611Z,55.66
2024-03-22T08:36:50.580Z,53.52
2024-03-22T08:37:50.554Z,52.52
2024-03-22T08:38:50.722Z,52.62
2024-03-22T08:39:50.531Z,52.12
2024-03-22T08:40:50.537Z,52.62
2024-03-22T08:41:50.647Z,52.72
2024-03-22T08:42:50.492Z,54.29
2024-03-22T08:43:50.574Z,53.34
2024-03-22T08:44:50.480Z,52.51
2024-03-22T08:45:50.822Z,52.09
2024-03-22T08:46:50.478Z,50.85
2024-03-22T08:47:50.435Z,48.76
2024-03-22T08:48:50.408Z,48.26
2024-03-22T08:49:50.395Z,51.17
2024-03-22T08:50:50.416Z,52.57
2024-03-22T08:51:50.373Z,50.65
2024-03-22T08:52:50.373Z,49.93
2024-03-22T08:53:50.349Z,50.18
2024-03-22T08:54:50.334Z,48.39
2024-03-22T08:55:50.338Z,48.66
2024-03-22T08:56:50.373Z,48.96
2024-03-22T08:57:57.977Z,47.87
2024-03-22T08:58:51.310Z,48.47
2024-03-22T08:59:50.270Z,48.65
2024-03-22T09:00:50.255Z,48.32
2024-03-22T09:01:50.279Z,46.81
2024-03-22T09:02:50.264Z,45.67
2024-03-22T09:03:50.212Z,47.57
2024-03-22T09:04:50.294Z,46.86
2024-03-22T09:05:56.650Z,47.47
2024-03-22T09:06:51.215Z,48.82
2024-03-22T09:07:50.866Z,47.53
2024-03-22T09:08:50.148Z,48.97
2024-03-22T09:09:50.136Z,46.30
2024-03-22T09:10:50.472Z,46.77
2024-03-22T09:11:50.130Z,44.46
2024-03-22T09:12:50.095Z,44.59
2024-03-22T09:13:50.083Z,45.00
2024-03-22T09:14:50.079Z,46.34
2024-03-22T09:15:50.106Z,47.03
2024-03-22T09:16:50.047Z,47.38
2024-03-22T09:17:50.039Z,45.70
2024-03-22T09:18:50.022Z,47.36
2024-03-22T09:19:50.036Z,45.87
2024-03-22T09:20:49.997Z,46.25
2024-03-22T09:21:50.015Z,45.65
2024-03-22T09:22:50.042Z,45.04
2024-03-22T09:23:49.957Z,45.21
2024-03-22T09:24:49.957Z,44.82
2024-03-22T09:25:49.931Z,44.62
2024-03-22T09:26:49.917Z,43.46
2024-03-22T09:27:49.907Z,43.75
2024-03-22T09:28:49.891Z,46.12
2024-03-22T09:29:50.405Z,45.31
2024-03-22T09:30:57.425Z,44.13
2024-03-22T09:31:50.877Z,45.59
2024-03-22T09:32:49.846Z,43.53
2024-03-22T09:33:49.869Z,43.35
2024-03-22T09:34:49.811Z,43.65
2024-03-22T09:35:49.890Z,44.59
2024-03-22T09:36:49.784Z,44.27
2024-03-22T09:37:49.775Z,45.65
2024-03-22T09:38:49.817Z,43.55
2024-03-22T09:39:49.742Z,43.46
2024-03-22T09:40:49.730Z,43.28
2024-03-22T09:41:50.932Z,44.31
2024-03-22T09:42:49.721Z,44.53
2024-03-22T09:43:49.744Z,45.90
2024-03-22T09:44:49.740Z,45.97
2024-03-22T09:45:49.733Z,44.17
2024-03-22T09:46:49.665Z,44.35
2024-03-22T09:47:49.743Z,44.52
2024-03-22T09:48:49.705Z,43.55
2024-03-22T09:49:49.688Z,43.97
2024-03-22T09:50:49.973Z,44.49
2024-03-22T09:51:49.608Z,45.28
2024-03-22T09:52:49.584Z,45.10
2024-03-22T09:53:50.297Z,45.62
2024-03-22T09:54:49.661Z,45.05
2024-03-22T09:55:49.543Z,45.47
2024-03-22T09:56:49.541Z,44.70
2024-03-22T09:57:49.520Z,43.54
2024-03-22T09:58:49.510Z,44.98
2024-03-22T09:59:49.587Z,45.90
2024-03-22T10:00:49.480Z,46.30
2024-03-22T10:01:49.468Z,45.62
2024-03-22T10:02:49.525Z,47.33
2024-03-22T10:03:49.442Z,46.64
2024-03-22T10:04:49.428Z,46.28
2024-03-22T10:05:49.453Z,47.98
2024-03-22T10:06:49.404Z,47.45
2024-03-22T10:07:49.393Z,47.93
2024-03-22T10:08:49.420Z,47.06
2024-03-22T10:09:49.370Z,47.48
2024-03-22T10:10:49.391Z,47.65
2024-03-22T10:11:49.371Z,48.27
2024-03-22T10:12:49.329Z,48.55
2024-03-22T10:13:49.315Z,50.32
2024-03-22T10:14:49.311Z,49.70
2024-03-22T10:15:49.288Z,49.00
2024-03-22T10:16:49.278Z,47.53
2024-03-22T10:17:49.263Z,47.55
2024-03-22T10:18:49.248Z,49.47
2024-03-22T10:19:49.233Z,48.69
2024-03-22T10:20:49.225Z,49.24
2024-03-22T10:21:49.209Z,51.27
2024-03-22T10:22:49.205Z,51.07
2024-03-22T10:23:49.185Z,52.19
2024-03-22T10:24:49.170Z,51.39
2024-03-22T10:25:49.158Z,52.49
2024-03-22T10:26:49.215Z,53.80
2024-03-22T10:27:49.137Z,53.80
2024-03-22T10:28:49.139Z,53.19
2024-03-22T10:29:49.189Z,53.69
2024-03-22T10:30:49.097Z,52.80
2024-03-22T10:31:49.093Z,52.49
2024-03-22T10:32:49.105Z,52.59
2024-03-22T10:33:49.158Z,52.67
2024-03-22T10:34:49.039Z,52.44
2024-03-22T10:35:49.088Z,51.02
2024-03-22T10:36:49.009Z,52.19
2024-03-22T10:37:52.652Z,51.39
2024-03-22T10:38:48.993Z,50.67
2024-03-22T10:39:49.053Z,51.64
2024-03-22T10:40:49.246Z,50.04
2024-03-22T10:41:49.053Z,50.84
2024-03-22T10:42:49.020Z,49.99
2024-03-22T10:43:48.940Z,51.22
2024-03-22T10:44:49.361Z,51.04
2024-03-22T10:45:49.008Z,51.37
2024-03-22T10:46:48.910Z,52.27
2024-03-22T10:47:48.864Z,52.87
2024-03-22T10:48:48.874Z,51.46
2024-03-22T10:49:51.044Z,50.96
2024-03-22T10:50:48.994Z,51.69
2024-03-22T10:51:48.808Z,52.89
2024-03-22T10:52:48.807Z,52.29
2024-03-22T10:53:49.282Z,52.24
2024-03-22T10:54:48.822Z,49.64
2024-03-22T10:55:48.763Z,51.44
2024-03-22T10:56:48.804Z,51.46
2024-03-22T10:57:48.839Z,52.07
2024-03-22T10:58:48.831Z,52.37
2024-03-22T10:59:48.806Z,51.37
2024-03-22T11:00:48.701Z,50.26
2024-03-22T11:01:48.710Z,49.74
2024-03-22T11:02:48.690Z,49.94
2024-03-22T11:03:48.665Z,50.84
2024-03-22T11:04:48.654Z,51.62
2024-03-22T11:05:48.659Z,49.11
2024-03-22T11:06:48.716Z,50.34
2024-03-22T11:07:48.609Z,50.72
2024-03-22T11:08:48.593Z,50.49
2024-03-22T11:09:48.584Z,49.09
2024-03-22T11:10:48.585Z,49.11
2024-03-22T11:11:48.552Z,48.99
2024-03-22T11:12:48.537Z,48.29
2024-03-22T11:13:48.930Z,48.69
2024-03-22T11:14:49.435Z,47.89
2024-03-22T11:15:48.504Z,48.49
2024-03-22T11:16:48.486Z,49.09
2024-03-22T11:17:48.470Z,48.79
2024-03-22T11:18:48.461Z,47.92
2024-03-22T11:19:48.444Z,49.41
2024-03-22T11:20:48.446Z,49.74
2024-03-22T11:21:48.421Z,48.34
2024-03-22T11:22:48.407Z,48.74
2024-03-22T11:23:48.394Z,48.44
2024-03-22T11:24:48.633Z,48.42
2024-03-22T11:25:48.369Z,47.79
2024-03-22T11:26:48.357Z,48.37
2024-03-22T11:27:48.342Z,48.35
2024-03-22T11:28:48.331Z,48.32
2024-03-22T11:29:48.315Z,48.20
2024-03-22T11:30:48.326Z,46.68
2024-03-22T11:31:48.297Z,46.54
2024-03-22T11:32:48.278Z,45.44
2024-03-22T11:33:48.666Z,46.24
2024-03-22T11:34:48.253Z,47.24
2024-03-22T11:35:48.240Z,45.94
2024-03-22T11:36:48.226Z,45.74
2024-03-22T11:37:48.224Z,46.54
2024-03-22T11:38:48.229Z,46.34
2024-03-22T11:39:48.188Z,44.37
2024-03-22T11:40:48.176Z,46.36
2024-03-22T11:41:48.161Z,45.76
2024-03-22T11:42:48.157Z,45.76
2024-03-22T11:43:48.133Z,45.76
2024-03-22T11:44:48.123Z,43.69
2024-03-22T11:45:48.109Z,45.61
2024-03-22T11:46:48.127Z,46.20
2024-03-22T11:47:48.081Z,45.59
2024-03-22T11:48:48.069Z,45.09
2024-03-22T11:49:48.054Z,45.61
2024-03-22T11:50:48.051Z,45.78
2024-03-22T11:51:48.029Z,45.83
2024-03-22T11:52:48.020Z,47.72
2024-03-22T11:53:48.005Z,47.53
2024-03-22T11:54:47.996Z,47.03
2024-03-22T11:55:47.982Z,47.92
2024-03-22T11:56:47.969Z,46.13
2024-03-22T11:57:47.954Z,46.03
2024-03-22T11:58:47.942Z,46.43
2024-03-22T12:00:02.013Z,46.23
2024-03-22T12:01:12.055Z,47.15
2024-03-22T12:01:49.009Z,47.05
2024-03-22T12:02:47.910Z,47.35
2024-03-22T12:03:47.876Z,46.75
2024-03-22T12:04:47.862Z,46.45
2024-03-22T12:05:47.850Z,48.05
2024-03-22T12:06:47.843Z,46.65
2024-03-22T12:07:47.825Z,47.25
2024-03-22T12:08:47.910Z,48.05
2024-03-22T12:09:47.795Z,47.25
2024-03-22T12:10:47.787Z,46.33
2024-03-22T12:11:47.776Z,45.23
2024-03-22T12:12:47.757Z,46.13
2024-03-22T12:13:47.751Z,47.33
2024-03-22T12:14:47.735Z,46.33
2024-03-22T12:15:47.717Z,46.95
2024-03-22T12:16:47.702Z,46.95
2024-03-22T12:17:47.709Z,45.93
2024-03-22T12:18:47.700Z,46.31
2024-03-22T12:19:47.666Z,44.81
2024-03-22T12:20:48.000Z,45.71
2024-03-22T12:21:47.645Z,44.11
2024-03-22T12:22:47.642Z,44.93
2024-03-22T12:23:47.616Z,45.73
2024-03-22T12:24:47.596Z,45.90
2024-03-22T12:25:47.582Z,45.29
2024-03-22T12:26:47.573Z,44.87
2024-03-22T12:27:47.564Z,44.87
2024-03-22T12:28:47.548Z,44.46
2024-03-22T12:29:47.531Z,44.89
2024-03-22T12:30:47.524Z,45.18
2024-03-22T12:31:47.502Z,45.39
2024-03-22T12:32:47.490Z,45.68
2024-03-22T12:33:47.481Z,44.51
2024-03-22T12:34:47.480Z,45.10
2024-03-22T12:35:47.461Z,45.31
2024-03-22T12:36:47.438Z,43.73
2024-03-22T12:37:47.422Z,45.43
2024-03-22T12:38:47.413Z,46.43
2024-03-22T12:39:47.405Z,46.62
2024-03-22T12:40:47.384Z,46.83
2024-03-22T12:41:47.369Z,45.15
2024-03-22T12:42:47.363Z,45.75
2024-03-22T12:43:57.789Z,45.65
2024-03-22T12:44:48.357Z,44.57
2024-03-22T12:45:47.321Z,44.39
2024-03-22T12:46:47.305Z,44.70
2024-03-22T12:47:47.293Z,45.29
2024-03-22T12:48:47.282Z,45.89
2024-03-22T12:49:47.264Z,45.59
2024-03-22T12:50:47.270Z,44.39
2024-03-22T12:51:47.237Z,44.09
2024-03-22T12:52:47.223Z,46.09